createdAt,value
2017-12-21T00:02:29.321Z,44.95
2017-12-21T00:04:59.250Z,40.70
2017-12-21T00:07:32.827Z,41.60
2017-12-21T00:10:04.613Z,38.75
2017-12-21T00:15:13.833Z,37.42
2017-12-21T00:20:18.882Z,38.08
2017-12-21T00:22:52.430Z,39.33
2017-12-21T00:25:25.928Z,41.42
2017-12-21T00:27:59.486Z,41.25
2017-12-21T00:30:30.664Z,44.33
2017-12-21T00:33:02.333Z,43.63
2017-12-21T00:35:33.860Z,39.30
2017-12-21T00:38:08.033Z,35.90
2017-12-21T00:40:44.192Z,43.28
2017-12-21T00:43:17.223Z,47.08
2017-12-21T00:46:00.217Z,46.37
2017-12-21T00:48:32.213Z,42.62
2017-12-21T00:51:06.917Z,52.15
2017-12-21T00:53:38.434Z,40.20
2017-12-21T00:56:08.388Z,38.78
2017-12-21T00:58:40.595Z,44.28
2017-12-21T01:01:12.363Z,42.97
2017-12-21T01:03:44.684Z,40.40
2017-12-21T01:06:16.147Z,39.75
2017-12-21T01:08:50.317Z,38.40
2017-12-21T01:11:23.284Z,41.88
2017-12-21T01:13:54.300Z,37.25
2017-12-21T01:16:27.327Z,40.22
2017-12-21T01:19:00.888Z,52.25
2017-12-21T01:21:32.831Z,43.40
2017-12-21T01:24:05.310Z,43.80
2017-12-21T01:26:35.300Z,42.40
2017-12-21T01:29:07.976Z,42.17
2017-12-21T01:31:40.134Z,42.53
2017-12-21T01:34:10.325Z,42.08
2017-12-21T01:36:45.409Z,45.95
2017-12-21T01:39:18.085Z,47.72
2017-12-21T01:41:53.967Z,49.33
2017-12-21T01:44:26.858Z,45.70
2017-12-21T01:49:45.194Z,40.15
2017-12-21T01:52:18.446Z,44.85
2017-12-21T01:54:51.269Z,45.72
2017-12-21T01:57:21.663Z,42.38
2017-12-21T01:59:52.573Z,43.40
2017-12-21T02:02:22.371Z,45.45
2017-12-21T02:04:52.011Z,44.78
2017-12-21T02:07:23.403Z,40.33
2017-12-21T02:09:54.401Z,41.20
2017-12-21T02:12:24.767Z,37.63
2017-12-21T02:14:55.107Z,40.60
2017-12-21T02:17:26.862Z,38.05
2017-12-21T02:20:00.572Z,36.90
2017-12-21T02:22:36.499Z,37.60
2017-12-21T02:25:10.134Z,45.42
2017-12-21T02:27:40.281Z,39.65
2017-12-21T02:30:11.154Z,37.95
2017-12-21T02:32:45.727Z,38.75
2017-12-21T02:35:16.919Z,38.85
2017-12-21T02:37:48.458Z,40.53
2017-12-21T02:40:24.421Z,38.10
2017-12-21T02:42:58.394Z,47.70
2017-12-21T02:45:27.527Z,41.95
2017-12-21T02:47:57.207Z,46.50
2017-12-21T02:50:27.576Z,43.55
2017-12-21T02:52:59.208Z,42.65
2017-12-21T02:55:28.455Z,43.42
2017-12-21T02:57:56.583Z,43.40
2017-12-21T03:00:24.740Z,43.35
2017-12-21T03:02:53.585Z,40.67
2017-12-21T03:05:23.079Z,51.13
2017-12-21T03:07:52.115Z,45.28
2017-12-21T03:10:21.909Z,40.20
2017-12-21T03:12:50.929Z,53.05
2017-12-21T03:15:20.186Z,38.50
2017-12-21T03:17:48.191Z,41.42
2017-12-21T03:20:17.111Z,41.42
2017-12-21T03:22:45.178Z,47.08
2017-12-21T03:25:13.329Z,41.08
2017-12-21T03:27:42.188Z,39.53
2017-12-21T03:30:10.230Z,43.90
2017-12-21T03:32:38.258Z,38.55
2017-12-21T03:35:07.085Z,40.92
2017-12-21T03:37:35.216Z,41.88
2017-12-21T03:40:04.971Z,46.78
2017-12-21T03:42:33.374Z,48.15
2017-12-21T03:45:01.449Z,41.20
2017-12-21T03:47:29.634Z,40.45
2017-12-21T03:49:57.990Z,42.25
2017-12-21T03:52:26.726Z,38.15
2017-12-21T03:54:56.219Z,44.13
2017-12-21T03:57:26.132Z,41.58
2017-12-21T03:59:55.978Z,41.72
2017-12-21T04:02:24.304Z,44.03
2017-12-21T04:04:52.591Z,39.10
2017-12-21T04:07:20.850Z,43.10
2017-12-21T04:09:49.305Z,42.20
2017-12-21T04:12:17.704Z,35.75
2017-12-21T04:14:46.347Z,40.35
2017-12-21T04:17:14.429Z,42.60
2017-12-21T04:19:42.604Z,45.67
2017-12-21T04:22:11.190Z,38.88
2017-12-21T04:24:39.391Z,34.10
2017-12-21T04:27:07.509Z,44.60
2017-12-21T04:29:37.061Z,39.92
2017-12-21T04:32:06.090Z,40.72
2017-12-21T04:34:35.161Z,40.95
2017-12-21T04:37:03.460Z,42.92
2017-12-21T04:39:31.479Z,38.90
2017-12-21T04:41:59.508Z,35.58
2017-12-21T04:44:27.580Z,39.38
2017-12-21T04:46:55.553Z,34.63
2017-12-21T04:49:24.636Z,43.63
2017-12-21T04:51:52.710Z,40.17
2017-12-21T04:54:21.725Z,41.30
2017-12-21T04:56:51.394Z,35.15
2017-12-21T04:59:19.541Z,36.88
2017-12-21T05:01:47.648Z,38.85
2017-12-21T05:04:15.671Z,35.95
2017-12-21T05:06:43.714Z,36.90
2017-12-21T05:09:12.551Z,40.28
2017-12-21T05:11:40.590Z,36.30
2017-12-21T05:14:09.401Z,39.65
2017-12-21T05:16:37.557Z,36.42
2017-12-21T05:19:05.679Z,43.28
2017-12-21T05:21:33.712Z,42.53
2017-12-21T05:24:01.716Z,37.63
2017-12-21T05:26:29.771Z,45.80
2017-12-21T05:28:57.887Z,37.65
2017-12-21T05:31:25.910Z,42.65
2017-12-21T05:33:53.963Z,44.50
2017-12-21T05:36:24.246Z,33.85
2017-12-21T05:38:52.259Z,40.53
2017-12-21T05:41:20.258Z,47.83
2017-12-21T05:43:48.239Z,41.97
2017-12-21T05:46:16.254Z,40.55
2017-12-21T05:48:45.024Z,38.90
2017-12-21T05:51:13.029Z,46.15
2017-12-21T05:53:41.143Z,43.90
2017-12-21T05:56:09.202Z,44.95
2017-12-21T05:58:37.264Z,39.00
2017-12-21T06:01:05.374Z,42.62
2017-12-21T06:03:33.475Z,39.15
2017-12-21T06:06:02.290Z,38.03
2017-12-21T06:08:30.308Z,39.20
2017-12-21T06:10:58.334Z,44.72
2017-12-21T06:13:26.316Z,39.22
2017-12-21T06:15:54.343Z,44.15
2017-12-21T06:18:23.077Z,42.30
2017-12-21T06:20:51.075Z,42.67
2017-12-21T06:23:19.090Z,39.80
2017-12-21T06:25:47.098Z,40.58
2017-12-21T06:28:15.071Z,44.17
2017-12-21T06:30:43.104Z,36.75
2017-12-21T06:33:11.070Z,41.25
2017-12-21T06:35:39.081Z,43.53
2017-12-21T06:38:07.090Z,40.33
2017-12-21T06:40:36.754Z,41.45
2017-12-21T06:43:05.227Z,41.22
2017-12-21T06:45:33.599Z,46.30
2017-12-21T06:48:01.622Z,45.63
2017-12-21T06:50:30.459Z,46.33
2017-12-21T06:52:58.430Z,47.00
2017-12-21T06:55:26.434Z,41.97
2017-12-21T06:57:54.439Z,44.45
2017-12-21T07:00:22.420Z,41.20
2017-12-21T07:02:50.504Z,40.28
2017-12-21T07:05:19.175Z,40.22
2017-12-21T07:07:47.766Z,45.25
2017-12-21T07:10:15.739Z,41.78
2017-12-21T07:12:43.729Z,43.65
2017-12-21T07:15:11.706Z,46.15
2017-12-21T07:17:39.683Z,46.45
2017-12-21T07:20:07.756Z,40.97
2017-12-21T07:22:35.761Z,48.90
2017-12-21T07:25:04.579Z,50.03
2017-12-21T07:27:32.573Z,46.65
2017-12-21T07:30:00.539Z,42.70
2017-12-21T07:32:28.540Z,47.88
2017-12-21T07:34:56.538Z,46.65
2017-12-21T07:37:24.559Z,45.70
2017-12-21T07:39:52.567Z,50.75
2017-12-21T07:42:21.353Z,38.38
2017-12-21T07:44:50.109Z,50.42
2017-12-21T07:47:18.083Z,43.15
2017-12-21T07:49:46.109Z,49.40
2017-12-21T07:52:14.172Z,45.95
2017-12-21T07:54:42.140Z,42.40
2017-12-21T07:57:10.138Z,41.85
2017-12-21T07:59:39.095Z,40.15
2017-12-21T08:02:07.077Z,43.38
2017-12-21T08:04:35.115Z,46.03
2017-12-21T08:07:03.904Z,49.22
2017-12-21T08:09:32.673Z,39.80
2017-12-21T08:12:00.678Z,43.65
2017-12-21T08:14:29.457Z,40.45
2017-12-21T08:16:57.837Z,43.97
2017-12-21T08:19:26.580Z,43.95
2017-12-21T08:21:54.577Z,38.88
2017-12-21T08:24:22.564Z,45.00
2017-12-21T08:26:51.328Z,40.28
2017-12-21T08:29:19.311Z,36.75
2017-12-21T08:31:47.559Z,38.70
2017-12-21T08:34:15.795Z,42.72
2017-12-21T08:36:43.811Z,47.78
2017-12-21T08:39:11.835Z,40.83
2017-12-21T08:41:39.820Z,40.30
2017-12-21T08:44:07.788Z,43.92
2017-12-21T08:46:35.822Z,37.78
2017-12-21T08:49:04.568Z,37.60
2017-12-21T08:51:32.547Z,46.42
2017-12-21T08:54:00.603Z,41.55
2017-12-21T08:56:28.586Z,39.90
2017-12-21T08:58:56.589Z,46.78
2017-12-21T09:01:25.350Z,40.90
2017-12-21T09:03:53.343Z,40.75
2017-12-21T09:06:22.078Z,36.88
2017-12-21T09:08:50.075Z,42.62
2017-12-21T09:11:18.463Z,41.08
2017-12-21T09:13:47.378Z,40.08
2017-12-21T09:16:16.191Z,41.50
2017-12-21T09:18:44.192Z,49.08
2017-12-21T09:21:12.250Z,41.88
2017-12-21T09:23:40.261Z,47.97
2017-12-21T09:26:08.267Z,46.00
2017-12-21T09:28:36.342Z,39.08
2017-12-21T09:31:04.324Z,41.25
2017-12-21T09:33:32.347Z,41.35
2017-12-21T09:36:00.420Z,40.95
2017-12-21T09:38:28.439Z,46.63
2017-12-21T09:40:56.417Z,45.10
2017-12-21T09:43:24.475Z,42.72
2017-12-21T09:45:52.470Z,44.85
2017-12-21T09:48:20.449Z,49.40
2017-12-21T09:50:48.469Z,44.40
2017-12-21T09:53:16.553Z,43.05
2017-12-21T09:55:44.534Z,44.60
2017-12-21T09:58:13.473Z,47.88
2017-12-21T10:00:42.355Z,48.65
2017-12-21T10:03:11.244Z,54.00
2017-12-21T10:05:40.155Z,49.92
2017-12-21T10:08:08.916Z,54.60
2017-12-21T10:10:37.017Z,42.40
2017-12-21T10:13:05.888Z,49.60
2017-12-21T10:15:34.763Z,56.77
2017-12-21T10:18:03.594Z,47.53
2017-12-21T10:20:32.330Z,45.83
2017-12-21T10:23:00.351Z,48.40
2017-12-21T10:25:29.158Z,48.67
2017-12-21T10:27:57.246Z,48.13
2017-12-21T10:30:25.592Z,55.27
2017-12-21T10:32:54.388Z,56.40
2017-12-21T10:35:23.203Z,47.20
2017-12-21T10:37:51.214Z,43.47
2017-12-21T10:40:19.230Z,53.83
2017-12-21T10:42:47.254Z,49.53
2017-12-21T10:45:15.255Z,45.90
2017-12-21T10:47:44.046Z,51.40
2017-12-21T10:50:12.808Z,66.53
2017-12-21T10:52:40.781Z,49.90
2017-12-21T10:55:08.772Z,45.10
2017-12-21T10:57:37.583Z,47.97
2017-12-21T11:00:05.583Z,49.70
2017-12-21T11:02:33.598Z,48.77
2017-12-21T11:05:02.402Z,68.93
2017-12-21T11:07:30.383Z,241.43
2017-12-21T11:09:58.371Z,53.83
2017-12-21T11:12:26.401Z,57.77
2017-12-21T11:14:55.169Z,88.57
2017-12-21T11:17:23.188Z,58.03
2017-12-21T11:19:51.198Z,54.20
2017-12-21T11:22:19.232Z,69.07
2017-12-21T11:24:47.255Z,135.50
2017-12-21T11:27:16.093Z,61.97
2017-12-21T11:29:44.119Z,57.80
2017-12-21T11:32:12.895Z,59.57
2017-12-21T11:34:40.922Z,61.63
2017-12-21T11:37:08.924Z,57.63
2017-12-21T11:39:37.215Z,55.90
2017-12-21T11:42:05.239Z,54.93
2017-12-21T11:44:33.265Z,64.83
2017-12-21T11:47:02.031Z,58.23
2017-12-21T11:49:30.057Z,61.93
2017-12-21T11:51:58.083Z,58.00
2017-12-21T11:54:26.136Z,51.80
2017-12-21T11:56:54.141Z,58.77
2017-12-21T11:59:22.935Z,54.87
2017-12-21T12:01:51.684Z,59.63
2017-12-21T12:04:19.719Z,57.77
2017-12-21T12:06:47.749Z,53.10
2017-12-21T12:09:15.747Z,59.00
2017-12-21T12:11:43.719Z,55.47
2017-12-21T12:14:11.703Z,58.80
2017-12-21T12:16:39.722Z,57.17
2017-12-21T12:19:07.707Z,63.00
2017-12-21T12:21:36.831Z,65.47
2017-12-21T12:24:04.807Z,58.57
2017-12-21T12:26:33.322Z,65.03
2017-12-21T12:29:01.358Z,57.47
2017-12-21T12:31:29.359Z,62.80
2017-12-21T12:33:57.368Z,51.93
2017-12-21T12:36:26.162Z,53.00
2017-12-21T12:38:54.898Z,57.37
2017-12-21T12:41:22.883Z,54.23
2017-12-21T12:43:51.824Z,57.20
2017-12-21T12:46:19.883Z,55.83
2017-12-21T12:48:48.674Z,60.23
2017-12-21T12:51:17.500Z,61.70
2017-12-21T12:53:45.493Z,57.87
2017-12-21T12:56:13.520Z,61.40
2017-12-21T12:58:41.554Z,54.20
2017-12-21T13:01:09.571Z,54.83
2017-12-21T13:03:37.566Z,61.37
2017-12-21T13:06:05.564Z,58.83
2017-12-21T13:08:34.574Z,64.90
2017-12-21T13:11:04.095Z,63.70
2017-12-21T13:13:32.637Z,66.30
2017-12-21T13:16:00.654Z,62.43
2017-12-21T13:18:28.646Z,63.93
2017-12-21T13:20:56.624Z,55.37
2017-12-21T13:23:25.149Z,55.10
2017-12-21T13:25:54.639Z,53.43
2017-12-21T13:28:22.638Z,55.23
2017-12-21T13:30:50.733Z,63.97
2017-12-21T13:33:19.206Z,56.77
2017-12-21T13:35:47.202Z,58.70
2017-12-21T13:38:15.179Z,64.93
2017-12-21T13:40:43.210Z,55.10
2017-12-21T13:43:11.294Z,51.63
2017-12-21T13:45:39.310Z,62.47
2017-12-21T13:48:07.334Z,63.77
2017-12-21T13:50:35.346Z,68.03
2017-12-21T13:53:03.446Z,58.67
2017-12-21T13:55:32.258Z,55.97
2017-12-21T13:58:00.281Z,50.63
2017-12-21T14:00:28.391Z,50.05
2017-12-21T14:02:56.476Z,59.60
2017-12-21T14:05:24.517Z,46.50
2017-12-21T14:07:53.279Z,49.70
2017-12-21T14:10:21.306Z,44.77
2017-12-21T14:12:50.239Z,53.25
2017-12-21T14:15:18.371Z,45.33
2017-12-21T14:17:47.607Z,46.13
2017-12-21T14:20:15.594Z,43.55
2017-12-21T14:22:43.707Z,43.53
2017-12-21T14:25:12.467Z,47.83
2017-12-21T14:27:41.881Z,47.58
2017-12-21T14:30:10.876Z,52.40
2017-12-21T14:32:38.864Z,52.30
2017-12-21T14:35:06.870Z,50.27
2017-12-21T14:37:35.167Z,55.47
2017-12-21T14:40:03.168Z,56.53
2017-12-21T14:42:31.166Z,66.03
2017-12-21T14:44:59.278Z,68.57
2017-12-21T14:47:27.287Z,64.60
2017-12-21T14:49:55.272Z,64.00
2017-12-21T14:52:24.119Z,57.20
2017-12-21T14:54:53.344Z,64.43
2017-12-21T14:57:21.688Z,73.10
2017-12-21T14:59:49.723Z,62.97
2017-12-21T15:02:17.704Z,59.63
2017-12-21T15:04:45.719Z,64.43
2017-12-21T15:07:14.540Z,60.10
2017-12-21T15:09:42.529Z,69.62
2017-12-21T15:12:10.535Z,61.42
2017-12-21T15:14:39.327Z,69.32
2017-12-21T15:17:08.078Z,62.65
2017-12-21T15:19:36.082Z,65.50
2017-12-21T15:22:04.175Z,60.72
2017-12-21T15:24:32.778Z,68.60
2017-12-21T15:27:01.632Z,65.68
2017-12-21T15:29:30.382Z,67.75
2017-12-21T15:31:58.358Z,69.00
2017-12-21T15:34:26.370Z,79.75
2017-12-21T15:36:55.119Z,98.07
2017-12-21T15:39:23.671Z,65.37
2017-12-21T15:41:51.665Z,71.43
2017-12-21T15:44:19.677Z,74.50
2017-12-21T15:46:48.707Z,101.50
2017-12-21T15:49:16.722Z,71.47
2017-12-21T15:51:45.130Z,75.37
2017-12-21T15:54:15.003Z,70.87
2017-12-21T15:56:43.014Z,79.40
2017-12-21T15:59:12.518Z,71.80
2017-12-21T16:01:41.291Z,66.37
2017-12-21T16:04:10.063Z,67.00
2017-12-21T16:06:38.149Z,65.85
2017-12-21T16:09:06.195Z,73.72
2017-12-21T16:11:34.267Z,65.15
2017-12-21T16:14:02.315Z,61.55
2017-12-21T16:16:30.343Z,68.80
2017-12-21T16:18:59.107Z,65.20
2017-12-21T16:21:27.118Z,67.82
2017-12-21T16:23:55.106Z,68.60
2017-12-21T16:26:23.107Z,79.53
2017-12-21T16:28:51.151Z,74.93
2017-12-21T16:31:19.144Z,80.93
2017-12-21T16:33:47.138Z,71.65
2017-12-21T16:36:15.469Z,71.53
2017-12-21T16:38:43.459Z,86.37
2017-12-21T16:41:11.633Z,125.50
2017-12-21T16:43:39.646Z,116.18
2017-12-21T16:46:09.652Z,112.95
2017-12-21T16:48:38.677Z,87.82
2017-12-21T16:51:06.834Z,91.22
2017-12-21T16:53:35.653Z,86.95
2017-12-21T16:56:03.706Z,88.43
2017-12-21T16:58:32.520Z,85.20
2017-12-21T17:01:00.539Z,83.15
2017-12-21T17:03:28.617Z,78.68
2017-12-21T17:05:56.626Z,90.75
2017-12-21T17:08:26.987Z,86.72
2017-12-21T17:10:56.493Z,84.62
2017-12-21T17:13:26.431Z,84.32
2017-12-21T17:15:54.430Z,87.40
2017-12-21T17:18:22.427Z,85.93
2017-12-21T17:20:50.488Z,88.60
2017-12-21T17:23:18.536Z,96.22
2017-12-21T17:25:47.306Z,88.53
2017-12-21T17:28:15.390Z,85.53
2017-12-21T17:30:44.692Z,84.60
2017-12-21T17:33:13.487Z,94.70
2017-12-21T17:35:42.325Z,79.05
2017-12-21T17:38:10.359Z,79.22
2017-12-21T17:40:38.399Z,74.37
2017-12-21T17:43:06.431Z,86.40
2017-12-21T17:45:34.474Z,83.62
2017-12-21T17:48:02.538Z,73.60
2017-12-21T17:50:30.590Z,71.43
2017-12-21T17:52:59.338Z,68.53
2017-12-21T17:55:27.392Z,71.28
2017-12-21T17:57:55.426Z,73.15
2017-12-21T18:00:24.279Z,72.22
2017-12-21T18:02:52.279Z,79.18
2017-12-21T18:05:21.061Z,83.30
2017-12-21T18:07:49.137Z,68.15
2017-12-21T18:10:17.151Z,74.87
2017-12-21T18:12:45.217Z,75.97
2017-12-21T18:15:13.255Z,76.07
2017-12-21T18:17:42.402Z,76.15
2017-12-21T18:20:10.415Z,72.15
2017-12-21T18:22:38.494Z,79.43
2017-12-21T18:25:07.324Z,77.03
2017-12-21T18:27:35.346Z,75.32
2017-12-21T18:30:03.771Z,75.70
2017-12-21T18:32:31.777Z,81.07
2017-12-21T18:34:59.771Z,71.85
2017-12-21T18:37:27.826Z,76.47
2017-12-21T18:39:55.867Z,140.68
2017-12-21T18:42:23.887Z,85.43
2017-12-21T18:44:52.676Z,79.62
2017-12-21T18:47:21.489Z,78.90
2017-12-21T18:49:49.491Z,77.55
2017-12-21T18:52:17.523Z,68.80
2017-12-21T18:54:46.358Z,83.22
2017-12-21T18:57:14.393Z,73.82
2017-12-21T18:59:42.418Z,63.13
2017-12-21T19:02:10.520Z,73.22
2017-12-21T19:04:39.323Z,75.35
2017-12-21T19:07:07.356Z,70.93
2017-12-21T19:09:35.410Z,84.35
2017-12-21T19:12:03.432Z,72.87
2017-12-21T19:14:31.434Z,74.05
2017-12-21T19:16:59.450Z,75.78
2017-12-21T19:19:28.235Z,75.55
2017-12-21T19:21:56.226Z,72.28
2017-12-21T19:24:25.002Z,74.28
2017-12-21T19:26:53.808Z,68.90
2017-12-21T19:29:21.866Z,78.05
2017-12-21T19:31:50.620Z,85.18
2017-12-21T19:34:18.657Z,74.80
2017-12-21T19:36:46.655Z,72.87
2017-12-21T19:39:14.709Z,74.70
2017-12-21T19:41:42.769Z,80.05
2017-12-21T19:44:10.835Z,79.62
2017-12-21T19:46:38.901Z,74.95
2017-12-21T19:49:06.973Z,74.60
2017-12-21T19:51:35.043Z,74.57
2017-12-21T19:54:03.060Z,67.32
2017-12-21T19:56:31.065Z,76.78
2017-12-21T19:58:59.918Z,68.72
2017-12-21T20:01:27.919Z,73.53
2017-12-21T20:03:55.938Z,66.65
2017-12-21T20:06:23.933Z,60.90
2017-12-21T20:08:51.970Z,57.58
2017-12-21T20:11:20.975Z,59.75
2017-12-21T20:13:48.990Z,65.00
2017-12-21T20:16:17.818Z,67.50
2017-12-21T20:18:45.819Z,67.80
2017-12-21T20:21:13.854Z,59.33
2017-12-21T20:23:41.873Z,60.63
2017-12-21T20:26:12.809Z,70.30
2017-12-21T20:28:40.843Z,65.82
2017-12-21T20:31:08.934Z,70.35
2017-12-21T20:33:36.962Z,70.28
2017-12-21T20:36:05.742Z,67.45
2017-12-21T20:38:34.528Z,71.70
2017-12-21T20:41:04.438Z,71.55
2017-12-21T20:43:32.469Z,69.43
2017-12-21T20:46:00.487Z,72.05
2017-12-21T20:48:29.336Z,64.10
2017-12-21T20:50:57.346Z,61.88
2017-12-21T20:53:26.116Z,63.22
2017-12-21T20:55:54.187Z,71.37
2017-12-21T20:58:22.211Z,68.30
2017-12-21T21:00:50.335Z,64.50
2017-12-21T21:03:18.419Z,68.87
2017-12-21T21:05:47.196Z,69.97
2017-12-21T21:08:15.226Z,64.00
2017-12-21T21:10:43.261Z,70.03
2017-12-21T21:13:12.026Z,59.75
2017-12-21T21:15:40.130Z,69.05
2017-12-21T21:18:08.229Z,63.38
2017-12-21T21:20:36.332Z,63.00
2017-12-21T21:23:04.407Z,64.65
2017-12-21T21:25:32.453Z,61.17
2017-12-21T21:28:00.508Z,68.90
2017-12-21T21:30:28.500Z,66.82
2017-12-21T21:32:57.765Z,73.30
2017-12-21T21:35:25.774Z,58.72
2017-12-21T21:37:53.809Z,64.55
2017-12-21T21:40:21.878Z,68.00
2017-12-21T21:42:49.908Z,71.50
2017-12-21T21:45:17.922Z,55.97
2017-12-21T21:47:45.980Z,63.80
2017-12-21T21:50:14.750Z,62.65
2017-12-21T21:52:43.574Z,56.42
2017-12-21T21:55:11.555Z,52.75
2017-12-21T21:57:39.606Z,55.75
2017-12-21T22:00:07.743Z,47.58
2017-12-21T22:02:35.846Z,59.45
2017-12-21T22:05:03.867Z,53.97
2017-12-21T22:07:31.891Z,52.35
2017-12-21T22:09:59.918Z,61.75
2017-12-21T22:12:27.950Z,49.90
2017-12-21T22:14:55.982Z,52.42
2017-12-21T22:17:24.759Z,57.62
2017-12-21T22:19:52.764Z,56.50
2017-12-21T22:22:20.767Z,52.78
2017-12-21T22:24:48.774Z,55.50
2017-12-21T22:27:16.802Z,61.50
2017-12-21T22:29:44.851Z,61.63
2017-12-21T22:32:12.847Z,64.62
2017-12-21T22:34:40.842Z,59.85
2017-12-21T22:37:08.866Z,62.78
2017-12-21T22:39:36.882Z,64.95
2017-12-21T22:42:04.905Z,56.40
2017-12-21T22:44:32.941Z,59.25
2017-12-21T22:47:00.973Z,64.35
2017-12-21T22:49:28.990Z,62.13
2017-12-21T22:51:57.799Z,57.95
2017-12-21T22:54:25.830Z,61.05
2017-12-21T22:56:53.860Z,59.65
2017-12-21T22:59:21.891Z,52.90
2017-12-21T23:01:50.668Z,57.45
2017-12-21T23:04:18.635Z,52.00
2017-12-21T23:06:46.666Z,54.53
2017-12-21T23:09:14.683Z,57.83
2017-12-21T23:11:42.715Z,53.78
2017-12-21T23:14:10.798Z,53.25
2017-12-21T23:16:38.834Z,56.90
2017-12-21T23:19:06.831Z,52.90
2017-12-21T23:21:35.840Z,46.45
2017-12-21T23:24:04.762Z,45.17
2017-12-21T23:26:32.796Z,58.47
2017-12-21T23:29:00.841Z,54.53
2017-12-21T23:31:29.732Z,49.05
2017-12-21T23:33:57.773Z,53.63
2017-12-21T23:36:26.574Z,48.60
2017-12-21T23:38:54.588Z,50.65
2017-12-21T23:41:22.615Z,51.45
2017-12-21T23:43:50.640Z,49.13
2017-12-21T23:46:18.627Z,49.13
2017-12-21T23:48:46.623Z,44.38
2017-12-21T23:51:14.706Z,48.63
2017-12-21T23:53:42.785Z,50.20
2017-12-21T23:56:10.790Z,45.42
2017-12-21T23:58:38.773Z,43.47
